Terminal Aerodrome Forecast
Issued by NWS Wichita, KS

Home | Current Version | Previous Version | Text Only | Print | Product List | Glossary On
Versions: 1 2 3 4 5 6 7 8 9 10 11 12 13 14 15 16 17 18
000
FTUS43 KICT 010500
TAFICT
TAF
KICT 010520Z 0106/0206 14008KT P6SM SCT050 BKN100
     FM010800 17010KT P6SM SCT050 OVC120
     FM011500 21011KT P6SM SCT120
     FM012100 34009KT P6SM SCT060 BKN150=

USA.gov is the U.S. government's official web portal to all federal, state and local government web resources and services.